createdAt,value
2016-11-18T00:00:44.735Z,8.67
2016-11-18T00:01:53.363Z,8.49
2016-11-18T00:03:02.811Z,8.37
2016-11-18T00:04:11.428Z,8.44
2016-11-18T00:05:20.029Z,8.57
2016-11-18T00:06:28.983Z,8.47
2016-11-18T00:07:37.922Z,8.53
2016-11-18T00:08:46.903Z,8.41
2016-11-18T00:09:56.161Z,8.6
2016-11-18T00:11:04.773Z,8.44
2016-11-18T00:12:13.719Z,8.62
2016-11-18T00:13:22.645Z,8.52
2016-11-18T00:14:31.614Z,8.41
2016-11-18T00:15:40.878Z,8.39
2016-11-18T00:16:49.814Z,8.32
2016-11-18T00:17:59.410Z,8.28
2016-11-18T00:19:08.342Z,8.39
2016-11-18T00:20:17.945Z,8.44
2016-11-18T00:21:26.926Z,8.37
2016-11-18T00:22:35.853Z,8.53
2016-11-18T00:23:44.464Z,8.41
2016-11-18T00:24:53.404Z,8.39
2016-11-18T00:26:02.447Z,8.53
2016-11-18T00:27:11.069Z,8.32
2016-11-18T00:28:20.325Z,8.28
2016-11-18T00:29:29.918Z,8.32
2016-11-18T00:30:38.847Z,8.5
2016-11-18T00:31:48.132Z,8.41
2016-11-18T00:32:56.758Z,8.5
2016-11-18T00:34:06.010Z,8.52
2016-11-18T00:35:14.959Z,8.62
2016-11-18T00:36:23.900Z,8.63
2016-11-18T00:37:32.952Z,8.44
2016-11-18T00:38:41.575Z,8.41
2016-11-18T00:39:50.513Z,8.52
2016-11-18T00:40:59.135Z,8.37
2016-11-18T00:42:08.066Z,8.62
2016-11-18T00:43:17.396Z,8.63
2016-11-18T00:44:26.361Z,8.24
2016-11-18T00:45:35.637Z,8.24
2016-11-18T00:46:44.571Z,8.28
2016-11-18T00:47:53.189Z,8.5
2016-11-18T00:49:02.482Z,8.39
2016-11-18T00:50:11.410Z,8.35
2016-11-18T00:51:20.011Z,8.57
2016-11-18T00:52:28.627Z,8.59
2016-11-18T00:53:37.563Z,8.41
2016-11-18T00:54:46.907Z,8.31
2016-11-18T00:55:55.839Z,8.53
2016-11-18T00:57:04.456Z,8.42
2016-11-18T00:58:13.446Z,8.38
2016-11-18T00:59:22.395Z,8.29
2016-11-18T01:00:31.998Z,8.28
2016-11-18T01:01:40.946Z,8.47
2016-11-18T01:02:50.537Z,8.37
2016-11-18T01:03:59.494Z,8.52
2016-11-18T01:05:08.105Z,8.37
2016-11-18T01:06:17.728Z,8.35
2016-11-18T01:07:26.667Z,8.47
2016-11-18T01:08:35.609Z,8.52
2016-11-18T01:09:44.536Z,8.41
2016-11-18T01:10:53.480Z,8.6
2016-11-18T01:12:02.200Z,8.68
2016-11-18T01:13:11.129Z,8.5
2016-11-18T01:14:20.389Z,8.47
2016-11-18T01:15:29.332Z,8.41
2016-11-18T01:16:37.961Z,8.5
2016-11-18T01:17:47.584Z,8.52
2016-11-18T01:18:56.205Z,8.62
2016-11-18T01:20:04.829Z,8.72
2016-11-18T01:21:14.079Z,8.44
2016-11-18T01:22:23.004Z,8.57
2016-11-18T01:23:32.387Z,8.32
2016-11-18T01:24:41.656Z,8.42
2016-11-18T01:25:50.600Z,8.59
2016-11-18T01:26:59.205Z,8.53
2016-11-18T01:28:07.830Z,8.62
2016-11-18T01:29:16.793Z,8.8
2016-11-18T01:30:25.424Z,8.57
2016-11-18T01:31:34.076Z,8.56
2016-11-18T01:32:43.019Z,8.63
2016-11-18T01:33:52.298Z,8.53
2016-11-18T01:35:01.006Z,8.41
2016-11-18T01:36:09.961Z,8.62
2016-11-18T01:37:18.580Z,8.63
2016-11-18T01:38:27.510Z,8.62
2016-11-18T01:39:37.092Z,8.75
2016-11-18T01:40:46.051Z,8.78
2016-11-18T01:41:54.671Z,8.6
2016-11-18T01:43:03.941Z,8.56
2016-11-18T01:44:12.887Z,8.71
2016-11-18T01:45:21.826Z,8.57
2016-11-18T01:46:30.914Z,8.42
2016-11-18T01:47:40.182Z,8.5
2016-11-18T01:48:49.135Z,8.42
2016-11-18T01:49:58.401Z,8.65
2016-11-18T01:51:07.352Z,8.47
2016-11-18T01:52:16.643Z,8.62
2016-11-18T01:53:25.252Z,8.75
2016-11-18T01:54:34.510Z,8.78
2016-11-18T01:55:43.439Z,8.86
2016-11-18T01:56:52.372Z,8.86
2016-11-18T01:58:01.038Z,8.67
2016-11-18T01:59:09.645Z,8.49
2016-11-18T02:00:18.918Z,8.67
2016-11-18T02:01:27.578Z,8.7
2016-11-18T02:02:36.849Z,8.75
2016-11-18T02:03:46.213Z,8.77
2016-11-18T02:04:55.481Z,8.71
2016-11-18T02:06:04.772Z,8.9
2016-11-18T02:07:13.720Z,8.6
2016-11-18T02:08:22.669Z,8.7
2016-11-18T02:09:32.063Z,8.71
2016-11-18T02:10:41.027Z,8.75
2016-11-18T02:11:49.964Z,8.89
2016-11-18T02:12:58.913Z,8.63
2016-11-18T02:14:07.861Z,8.81
2016-11-18T02:15:17.241Z,8.99
2016-11-18T02:16:25.854Z,8.8
2016-11-18T02:17:34.487Z,8.88
2016-11-18T02:18:43.440Z,8.83
2016-11-18T02:19:52.399Z,8.88
2016-11-18T02:21:01.122Z,8.81
2016-11-18T02:22:09.728Z,8.68
2016-11-18T02:23:18.341Z,8.75
2016-11-18T02:24:27.271Z,8.93
2016-11-18T02:25:36.261Z,8.65
2016-11-18T02:26:45.554Z,8.53
2016-11-18T02:27:54.180Z,8.6
2016-11-18T02:29:04.120Z,8.6
2016-11-18T02:30:12.751Z,8.68
2016-11-18T02:31:21.366Z,8.57
2016-11-18T02:32:30.666Z,8.55
2016-11-18T02:33:39.601Z,8.6
2016-11-18T02:34:48.573Z,8.62
2016-11-18T02:35:57.843Z,8.78
2016-11-18T02:37:07.091Z,8.49
2016-11-18T02:38:16.141Z,8.67
2016-11-18T02:39:25.118Z,8.68
2016-11-18T02:40:34.387Z,8.68
2016-11-18T02:41:43.634Z,8.83
2016-11-18T02:42:52.571Z,8.63
2016-11-18T02:44:02.225Z,8.85
2016-11-18T02:45:11.164Z,8.62
2016-11-18T02:46:20.101Z,8.59
2016-11-18T02:47:29.052Z,8.74
2016-11-18T02:48:37.993Z,8.71
2016-11-18T02:49:46.979Z,8.86
2016-11-18T02:50:55.601Z,8.86
2016-11-18T02:52:04.851Z,8.83
2016-11-18T02:53:13.810Z,8.89
2016-11-18T02:54:22.420Z,8.83
2016-11-18T02:55:31.421Z,8.78
2016-11-18T02:56:40.362Z,8.7
2016-11-18T02:57:49.321Z,8.6
2016-11-18T02:58:58.261Z,8.72
2016-11-18T03:00:07.529Z,8.88
2016-11-18T03:01:16.823Z,8.85
2016-11-18T03:02:25.754Z,8.95
2016-11-18T03:03:34.366Z,8.7
2016-11-18T03:04:43.954Z,8.63
2016-11-18T03:05:53.209Z,8.88
2016-11-18T03:07:02.868Z,8.56
2016-11-18T03:08:12.455Z,8.56
2016-11-18T03:09:21.385Z,8.71
2016-11-18T03:10:30.327Z,8.8
2016-11-18T03:11:38.940Z,8.57
2016-11-18T03:12:48.174Z,8.83
2016-11-18T03:13:56.795Z,8.92
2016-11-18T03:15:05.747Z,8.62
2016-11-18T03:16:14.366Z,8.63
2016-11-18T03:17:23.632Z,8.68
2016-11-18T03:18:33.337Z,8.71
2016-11-18T03:19:41.944Z,8.8
2016-11-18T03:20:50.875Z,8.68
2016-11-18T03:22:00.148Z,8.53
2016-11-18T03:23:10.058Z,8.86
2016-11-18T03:24:18.723Z,8.71
2016-11-18T03:25:28.287Z,8.88
2016-11-18T03:26:36.913Z,8.68
2016-11-18T03:27:45.848Z,8.72
2016-11-18T03:28:54.802Z,8.65
2016-11-18T03:30:04.763Z,8.75
2016-11-18T03:31:13.391Z,8.74
2016-11-18T03:32:22.340Z,8.88
2016-11-18T03:33:30.961Z,8.93
2016-11-18T03:34:39.944Z,8.72
2016-11-18T03:35:49.262Z,8.83
2016-11-18T03:36:58.211Z,8.7
2016-11-18T03:38:06.857Z,8.67
2016-11-18T03:39:15.466Z,8.77
2016-11-18T03:40:24.736Z,8.65
2016-11-18T03:41:34.009Z,8.78
2016-11-18T03:42:42.955Z,8.8
2016-11-18T03:43:51.896Z,8.62
2016-11-18T03:45:00.509Z,8.96
2016-11-18T03:46:09.133Z,9.11
2016-11-18T03:47:18.797Z,9.01
2016-11-18T03:48:27.735Z,8.86
2016-11-18T03:49:36.669Z,8.85
2016-11-18T03:50:45.608Z,8.88
2016-11-18T03:51:54.227Z,8.86
2016-11-18T03:53:03.617Z,8.85
2016-11-18T03:54:12.565Z,8.83
2016-11-18T03:55:21.178Z,8.63
2016-11-18T03:56:30.162Z,8.8
2016-11-18T03:57:39.104Z,8.77
2016-11-18T03:58:48.062Z,8.89
2016-11-18T03:59:57.312Z,8.88
2016-11-18T04:01:06.287Z,8.68
2016-11-18T04:02:14.901Z,8.55
2016-11-18T04:03:23.836Z,8.46
2016-11-18T04:04:33.171Z,8.32
2016-11-18T04:05:42.756Z,8.62
2016-11-18T04:06:51.381Z,8.46
2016-11-18T04:08:00.641Z,8.57
2016-11-18T04:09:09.257Z,8.62
2016-11-18T04:10:17.922Z,8.74
2016-11-18T04:11:26.541Z,8.7
2016-11-18T04:12:35.786Z,8.42
2016-11-18T04:13:44.422Z,8.35
2016-11-18T04:14:53.353Z,8.42
2016-11-18T04:16:02.016Z,8.44
2016-11-18T04:17:11.287Z,8.44
2016-11-18T04:18:19.912Z,8.44
2016-11-18T04:19:28.854Z,8.47
2016-11-18T04:20:37.800Z,8.46
2016-11-18T04:21:46.855Z,8.29
2016-11-18T04:22:56.132Z,8.29
2016-11-18T04:24:05.083Z,8.29
2016-11-18T04:25:14.023Z,8.31
2016-11-18T04:26:23.587Z,8.28
2016-11-18T04:27:32.253Z,8.28
2016-11-18T04:28:41.196Z,8.26
2016-11-18T04:29:50.457Z,8.14
2016-11-18T04:31:00.052Z,8.28
2016-11-18T04:32:09.310Z,8.31
2016-11-18T04:33:18.315Z,8.26
2016-11-18T04:34:27.580Z,8.21
2016-11-18T04:35:36.202Z,8.23
2016-11-18T04:36:45.144Z,8.19
2016-11-18T04:37:53.758Z,8.1
2016-11-18T04:39:03.092Z,8.26
2016-11-18T04:40:12.026Z,8.31
2016-11-18T04:41:20.646Z,8.05
2016-11-18T04:42:29.578Z,8.06
2016-11-18T04:43:38.201Z,8.13
2016-11-18T04:44:47.533Z,8.35
2016-11-18T04:45:56.161Z,8.16
2016-11-18T04:47:04.761Z,8.05
2016-11-18T04:48:13.373Z,7.99
2016-11-18T04:49:21.975Z,7.86
2016-11-18T04:50:31.272Z,7.95
2016-11-18T04:51:40.546Z,7.99
2016-11-18T04:52:49.489Z,7.95
2016-11-18T04:53:58.800Z,7.91
2016-11-18T04:55:07.753Z,7.84
2016-11-18T04:56:17.154Z,7.81
2016-11-18T04:57:26.099Z,7.84
2016-11-18T04:58:34.733Z,7.83
2016-11-18T04:59:44.003Z,7.68
2016-11-18T05:00:52.626Z,7.92
2016-11-18T05:02:01.976Z,7.66
2016-11-18T05:03:11.586Z,7.76
2016-11-18T05:04:20.851Z,7.78
2016-11-18T05:05:29.467Z,7.84
2016-11-18T05:06:38.402Z,7.88
2016-11-18T05:07:47.771Z,7.99
2016-11-18T05:08:56.397Z,7.84
2016-11-18T05:10:05.994Z,7.92
2016-11-18T05:11:15.245Z,7.78
2016-11-18T05:12:24.168Z,7.92
2016-11-18T05:13:33.877Z,7.8
2016-11-18T05:14:43.462Z,7.71
2016-11-18T05:15:52.420Z,7.8
2016-11-18T05:17:02.001Z,7.8
2016-11-18T05:18:10.611Z,7.83
2016-11-18T05:19:19.683Z,7.96
2016-11-18T05:20:28.946Z,7.84
2016-11-18T05:21:37.567Z,7.78
2016-11-18T05:22:46.510Z,7.84
2016-11-18T05:23:55.138Z,7.91
2016-11-18T05:25:04.145Z,7.92
2016-11-18T05:26:13.091Z,7.78
2016-11-18T05:27:22.037Z,7.99
2016-11-18T05:28:30.966Z,8.19
2016-11-18T05:29:39.573Z,8.14
2016-11-18T05:30:48.567Z,7.81
2016-11-18T05:31:57.829Z,7.96
2016-11-18T05:33:06.478Z,8.09
2016-11-18T05:34:15.730Z,7.84
2016-11-18T05:35:24.661Z,7.96
2016-11-18T05:36:34.029Z,7.92
2016-11-18T05:37:42.980Z,7.92
2016-11-18T05:38:51.912Z,7.91
2016-11-18T05:40:00.517Z,7.94
2016-11-18T05:41:09.454Z,7.78
2016-11-18T05:42:18.753Z,7.77
2016-11-18T05:43:28.331Z,7.76
2016-11-18T05:44:36.969Z,7.6
2016-11-18T05:45:45.922Z,7.66
2016-11-18T05:46:54.577Z,7.5
2016-11-18T05:48:03.246Z,7.52
2016-11-18T05:49:12.189Z,7.66
2016-11-18T05:50:21.138Z,7.6
2016-11-18T05:51:30.409Z,7.43
2016-11-18T05:52:39.335Z,7.52
2016-11-18T05:53:48.300Z,7.61
2016-11-18T05:54:57.248Z,7.58
2016-11-18T05:56:06.180Z,7.52
2016-11-18T05:57:15.821Z,7.26
2016-11-18T05:58:24.446Z,7.43
2016-11-18T06:00:05.169Z,7.44
2016-11-18T06:02:05.037Z,7.47
2016-11-18T06:03:13.657Z,7.47
2016-11-18T06:04:22.900Z,7.54
2016-11-18T06:07:44.667Z,7.39
2016-11-18T06:08:53.607Z,7.42
2016-11-18T06:10:02.546Z,7.39
2016-11-18T06:11:11.261Z,7.25
2016-11-18T06:12:20.529Z,7.11
2016-11-18T06:13:29.452Z,7.18
2016-11-18T06:14:38.722Z,7.19
2016-11-18T06:15:47.973Z,7.36
2016-11-18T06:16:56.976Z,7.34
2016-11-18T06:18:05.585Z,7.21
2016-11-18T06:19:14.839Z,7.25
2016-11-18T06:20:23.786Z,7.13
2016-11-18T06:21:33.060Z,7.25
2016-11-18T06:22:42.070Z,7.08
2016-11-18T06:23:50.675Z,7.04
2016-11-18T06:24:59.935Z,7.04
2016-11-18T06:26:08.883Z,7.16
2016-11-18T06:27:17.825Z,6.99
2016-11-18T06:28:26.803Z,7.01
2016-11-18T06:29:35.739Z,7.19
2016-11-18T06:30:44.684Z,6.99
2016-11-18T06:31:53.964Z,6.99
2016-11-18T06:33:02.577Z,7.03
2016-11-18T06:34:11.866Z,7.08
2016-11-18T06:35:20.801Z,7.11
2016-11-18T06:36:30.382Z,7.18
2016-11-18T06:37:39.631Z,7.25
2016-11-18T06:38:48.577Z,7.16
2016-11-18T06:39:57.608Z,7.19
2016-11-18T06:41:06.553Z,7.13
2016-11-18T06:42:15.535Z,7.33
2016-11-18T06:43:24.487Z,7.22
2016-11-18T06:44:33.108Z,7.1
2016-11-18T06:45:42.065Z,7.21
2016-11-18T06:46:51.021Z,7.25
2016-11-18T06:47:59.960Z,7.28
2016-11-18T06:49:09.245Z,7.24
2016-11-18T06:50:18.204Z,7.24
2016-11-18T06:51:27.810Z,7.24
2016-11-18T06:52:36.821Z,7.15
2016-11-18T06:53:45.429Z,7.36
2016-11-18T06:54:54.055Z,7.47
2016-11-18T06:56:02.667Z,7.33
2016-11-18T06:57:12.551Z,7.39
2016-11-18T06:58:21.479Z,7.49
2016-11-18T06:59:30.091Z,7.37
2016-11-18T07:00:39.040Z,7.49
2016-11-18T07:01:47.637Z,7.25
2016-11-18T07:02:57.661Z,7.4
2016-11-18T07:04:06.579Z,7.36
2016-11-18T07:05:15.218Z,7.24
2016-11-18T07:06:24.167Z,7.42
2016-11-18T07:07:33.115Z,7.24
2016-11-18T07:08:41.760Z,7.24
2016-11-18T07:09:50.697Z,7.26
2016-11-18T07:10:59.635Z,7.22
2016-11-18T07:12:08.591Z,7.26
2016-11-18T07:13:17.536Z,7.25
2016-11-18T07:14:26.191Z,7.44
2016-11-18T07:15:35.449Z,7.33
2016-11-18T07:16:44.393Z,7.15
2016-11-18T07:17:53.662Z,6.99
2016-11-18T07:19:02.596Z,7.1
2016-11-18T07:20:12.317Z,7.29
2016-11-18T07:21:21.247Z,7.39
2016-11-18T07:22:30.747Z,7.37
2016-11-18T07:23:39.442Z,7.49
2016-11-18T07:24:49.007Z,7.42
2016-11-18T07:25:58.245Z,7.42
2016-11-18T07:27:07.184Z,7.42
2016-11-18T07:28:15.805Z,7.36
2016-11-18T07:29:24.425Z,7.21
2016-11-18T07:30:33.707Z,7.34
2016-11-18T07:31:42.686Z,7.11
2016-11-18T07:32:51.635Z,7.18
2016-11-18T07:34:00.248Z,7.31
2016-11-18T07:35:09.191Z,7.29
2016-11-18T07:36:18.455Z,7.25
2016-11-18T07:37:27.459Z,7.24
2016-11-18T07:38:36.061Z,7.16
2016-11-18T07:39:45.664Z,7.26
2016-11-18T07:40:54.609Z,7.1
2016-11-18T07:42:03.914Z,7.21
2016-11-18T07:43:13.276Z,7.43
2016-11-18T07:44:22.209Z,7.46
2016-11-18T07:45:30.826Z,7.24
2016-11-18T07:46:39.778Z,7.18
2016-11-18T07:47:49.048Z,7.42
2016-11-18T07:48:58.403Z,7.39
2016-11-18T07:50:07.000Z,7.39
2016-11-18T07:51:16.611Z,7.22
2016-11-18T07:52:25.867Z,7.33
2016-11-18T07:53:34.795Z,7.28
2016-11-18T07:54:44.191Z,7.37
2016-11-18T07:55:53.503Z,7.34
2016-11-18T07:57:02.769Z,7.49
2016-11-18T07:58:11.376Z,7.44
2016-11-18T07:59:20.313Z,7.69
2016-11-18T08:00:29.286Z,7.81
2016-11-18T08:01:38.255Z,7.66
2016-11-18T08:02:47.188Z,7.5
2016-11-18T08:03:56.467Z,7.66
2016-11-18T08:05:05.710Z,7.6
2016-11-18T08:06:14.686Z,7.74
2016-11-18T08:07:23.300Z,7.81
2016-11-18T08:08:32.272Z,7.84
2016-11-18T08:09:41.214Z,7.74
2016-11-18T08:10:50.481Z,7.83
2016-11-18T08:11:59.777Z,7.78
2016-11-18T08:13:08.730Z,7.64
2016-11-18T08:14:17.355Z,7.61
2016-11-18T08:15:26.309Z,7.61
2016-11-18T08:16:35.237Z,7.73
2016-11-18T08:17:43.907Z,7.83
2016-11-18T08:18:53.160Z,7.78
2016-11-18T08:20:02.076Z,7.81
2016-11-18T08:21:11.015Z,8.01
2016-11-18T08:22:20.271Z,7.78
2016-11-18T08:23:29.034Z,8.01
2016-11-18T08:24:38.319Z,8.06
2016-11-18T08:25:47.577Z,7.98
2016-11-18T08:26:56.836Z,8.26
2016-11-18T08:28:05.455Z,7.99
2016-11-18T08:29:14.485Z,8.14
2016-11-18T08:30:23.415Z,8.44
2016-11-18T08:31:32.362Z,8.49
2016-11-18T08:32:41.654Z,8.29
2016-11-18T08:33:50.919Z,8.19
2016-11-18T08:35:00.210Z,8.23
2016-11-18T08:36:09.464Z,8.24
2016-11-18T08:37:18.415Z,8.34
2016-11-18T08:38:27.026Z,8.34
2016-11-18T08:39:35.986Z,8.26
2016-11-18T08:40:45.268Z,8.05
2016-11-18T08:41:54.531Z,8.26
2016-11-18T08:43:03.458Z,8.19
2016-11-18T08:44:12.741Z,8.21
2016-11-18T08:45:21.362Z,8.05
2016-11-18T08:46:30.979Z,7.99
2016-11-18T08:47:39.587Z,8.26
2016-11-18T08:48:48.540Z,8.29
2016-11-18T08:49:57.482Z,8.19
2016-11-18T08:51:06.095Z,8.04
2016-11-18T08:52:15.836Z,8.23
2016-11-18T08:53:24.887Z,8.06
2016-11-18T08:54:34.294Z,8.24
2016-11-18T08:55:43.250Z,7.92
2016-11-18T08:56:51.877Z,8.02
2016-11-18T08:58:01.213Z,8.5
2016-11-18T08:59:10.180Z,8.53
2016-11-18T09:00:18.808Z,8.24
2016-11-18T09:01:28.465Z,8.31
2016-11-18T09:02:37.752Z,8.26
2016-11-18T09:03:47.067Z,8.34
2016-11-18T09:04:56.024Z,8.47
2016-11-18T09:06:04.963Z,8.41
2016-11-18T09:07:14.219Z,8.52
2016-11-18T09:08:22.853Z,8.31
2016-11-18T09:09:32.161Z,8.21
2016-11-18T09:10:41.528Z,8.17
2016-11-18T09:11:50.846Z,8.2
2016-11-18T09:12:59.467Z,8.28
2016-11-18T09:14:08.446Z,8.1
2016-11-18T09:15:17.083Z,8.06
2016-11-18T09:16:26.020Z,8.16
2016-11-18T09:17:34.952Z,8.26
2016-11-18T09:18:43.600Z,8.29
2016-11-18T09:19:52.832Z,8.52
2016-11-18T09:21:01.474Z,8.31
2016-11-18T09:22:11.091Z,8.46
2016-11-18T09:23:20.364Z,8.37
2016-11-18T09:24:29.337Z,8.56
2016-11-18T09:25:38.634Z,8.72
2016-11-18T09:26:47.564Z,8.8
2016-11-18T09:27:56.525Z,8.86
2016-11-18T09:29:05.776Z,9.01
2016-11-18T09:30:15.051Z,8.85
2016-11-18T09:31:24.656Z,9.48
2016-11-18T09:32:33.921Z,9.04
2016-11-18T09:33:43.181Z,9.27
2016-11-18T09:34:52.131Z,9.27
2016-11-18T09:36:01.391Z,9.03
2016-11-18T09:37:10.432Z,8.68
2016-11-18T09:38:19.695Z,9.06
2016-11-18T09:39:28.979Z,8.83
2016-11-18T09:40:37.944Z,8.52
2016-11-18T09:41:46.885Z,8.55
2016-11-18T09:42:55.615Z,8.56
2016-11-18T09:44:04.859Z,8.52
2016-11-18T09:45:13.799Z,8.49
2016-11-18T09:46:22.428Z,8.56
2016-11-18T09:47:31.382Z,8.67
2016-11-18T09:48:41.105Z,8.44
2016-11-18T09:49:50.057Z,8.37
2016-11-18T09:50:59.336Z,8.56
2016-11-18T09:52:08.271Z,8.62
2016-11-18T09:53:17.200Z,8.46
2016-11-18T09:54:26.871Z,8.55
2016-11-18T09:55:35.813Z,8.62
2016-11-18T09:56:44.756Z,8.53
2016-11-18T09:57:54.030Z,8.29
2016-11-18T09:59:03.295Z,8.56
2016-11-18T10:00:12.285Z,8.59
2016-11-18T10:01:21.544Z,8.57
2016-11-18T10:02:30.808Z,8.56
2016-11-18T10:03:39.735Z,8.49
2016-11-18T10:04:48.369Z,8.53
2016-11-18T10:05:57.410Z,8.44
2016-11-18T10:07:06.037Z,8.47
2016-11-18T10:08:14.986Z,8.62
2016-11-18T10:09:23.920Z,8.68
2016-11-18T10:10:33.206Z,8.53
2016-11-18T10:11:42.529Z,8.56
2016-11-18T10:12:51.470Z,8.8
2016-11-18T10:14:00.079Z,8.92
2016-11-18T10:15:09.023Z,8.72
2016-11-18T10:16:17.957Z,8.49
2016-11-18T10:17:27.337Z,8.47
2016-11-18T10:18:36.282Z,8.72
2016-11-18T10:19:44.900Z,8.85
2016-11-18T10:20:53.846Z,8.96
2016-11-18T10:22:02.460Z,8.86
2016-11-18T10:23:11.426Z,8.72
2016-11-18T10:24:20.349Z,8.85
2016-11-18T10:25:29.598Z,8.81
2016-11-18T10:26:38.845Z,8.8
2016-11-18T10:27:47.791Z,9.03
2016-11-18T10:28:57.110Z,8.83
2016-11-18T10:30:05.716Z,8.83
2016-11-18T10:31:14.330Z,9.12
2016-11-18T10:32:23.610Z,8.89
2016-11-18T10:33:32.897Z,9.19
2016-11-18T10:34:41.899Z,8.85
2016-11-18T10:35:50.533Z,8.86
2016-11-18T10:36:59.815Z,8.77
2016-11-18T10:38:08.748Z,8.83
2016-11-18T10:39:18.024Z,8.98
2016-11-18T10:40:27.373Z,9.04
2016-11-18T10:41:36.328Z,8.98
2016-11-18T10:42:44.942Z,8.92
2016-11-18T10:43:53.591Z,8.85
2016-11-18T10:45:02.570Z,9.33
2016-11-18T10:46:11.536Z,9.47
2016-11-18T10:47:20.469Z,9.15
2016-11-18T10:48:29.413Z,9.22
2016-11-18T10:49:38.678Z,9.08
2016-11-18T10:50:47.300Z,9.12
2016-11-18T10:51:56.573Z,9.08
2016-11-18T10:53:05.495Z,9.15
2016-11-18T10:54:14.756Z,9.09
2016-11-18T10:55:23.423Z,8.89
2016-11-18T10:56:32.347Z,9.01
2016-11-18T10:57:41.963Z,9.23
2016-11-18T10:58:50.571Z,9.08
2016-11-18T10:59:59.818Z,9.23
2016-11-18T11:01:08.746Z,9.23
2016-11-18T11:02:17.366Z,9.09
2016-11-18T11:03:26.401Z,9.08
2016-11-18T11:04:35.023Z,9.06
2016-11-18T11:05:44.271Z,9.23
2016-11-18T11:06:53.196Z,9.42
2016-11-18T11:08:01.801Z,9.16
2016-11-18T11:09:11.599Z,9.22
2016-11-18T11:10:20.545Z,8.89
2016-11-18T11:11:29.172Z,9.3
2016-11-18T11:12:38.127Z,9.45
2016-11-18T11:13:46.754Z,9.16
2016-11-18T11:14:55.824Z,9.16
2016-11-18T11:16:04.781Z,9.22
2016-11-18T11:17:13.743Z,9.3
2016-11-18T11:18:22.383Z,9.23
2016-11-18T11:19:31.651Z,9.32
2016-11-18T11:20:40.704Z,9.32
2016-11-18T11:21:49.652Z,9.09
2016-11-18T11:22:58.277Z,9.54
2016-11-18T11:24:07.537Z,9.51
2016-11-18T11:25:16.162Z,9.29
2016-11-18T11:26:25.131Z,9.44
2016-11-18T11:27:34.074Z,9.72
2016-11-18T11:28:43.009Z,9.65
2016-11-18T11:29:51.970Z,9.48
2016-11-18T11:31:01.245Z,9.44
2016-11-18T11:32:10.548Z,9.23
2016-11-18T11:33:19.835Z,9.47
2016-11-18T11:34:28.839Z,9.47
2016-11-18T11:35:37.764Z,9.5
2016-11-18T11:36:46.764Z,9.73
2016-11-18T11:37:55.462Z,9.67
2016-11-18T11:39:04.408Z,9.32
2016-11-18T11:40:14.008Z,9.65
2016-11-18T11:41:22.954Z,9.41
2016-11-18T11:42:31.949Z,9.62
2016-11-18T11:43:41.013Z,9.81
2016-11-18T11:44:49.946Z,9.44
2016-11-18T11:45:58.903Z,9.42
2016-11-18T11:47:07.842Z,9.55
2016-11-18T11:48:17.388Z,9.63
2016-11-18T11:49:26.691Z,9.78
2016-11-18T11:50:35.968Z,9.57
2016-11-18T11:51:45.258Z,9.45
2016-11-18T11:52:54.205Z,9.4
2016-11-18T11:54:03.466Z,9.63
2016-11-18T11:55:12.559Z,9.54
2016-11-18T11:56:21.825Z,9.5
2016-11-18T11:57:30.441Z,9.57
2016-11-18T11:58:39.109Z,9.32
2016-11-18T11:59:47.706Z,9.59
2016-11-18T12:00:56.752Z,9.62
2016-11-18T12:02:05.696Z,9.72
2016-11-18T12:03:14.972Z,9.4
2016-11-18T12:04:23.583Z,9.42
2016-11-18T12:05:32.535Z,9.59
2016-11-18T12:06:41.890Z,9.65
2016-11-18T12:07:51.171Z,9.6
2016-11-18T12:08:59.807Z,9.81
2016-11-18T12:10:08.755Z,9.57
2016-11-18T12:11:18.013Z,9.48
2016-11-18T12:12:27.732Z,9.19
2016-11-18T12:13:37.005Z,9.32
2016-11-18T12:14:45.951Z,9.33
2016-11-18T12:15:54.875Z,9.44
2016-11-18T12:17:03.815Z,9.47
2016-11-18T12:18:13.545Z,9.59
2016-11-18T12:19:22.803Z,9.59
2016-11-18T12:20:32.083Z,9.5
2016-11-18T12:21:41.037Z,9.5
2016-11-18T12:22:49.663Z,9.54
2016-11-18T12:23:59.057Z,9.48
2016-11-18T12:25:08.632Z,9.42
2016-11-18T12:26:17.583Z,9.4
2016-11-18T12:27:26.525Z,9.42
2016-11-18T12:28:35.796Z,9.51
2016-11-18T12:29:44.463Z,9.65
2016-11-18T12:30:53.079Z,9.55
2016-11-18T12:32:02.021Z,9.47
2016-11-18T12:33:11.614Z,9.62
2016-11-18T12:34:20.885Z,9.57
2016-11-18T12:35:30.241Z,9.73
2016-11-18T12:36:38.847Z,9.57
2016-11-18T12:37:47.475Z,9.57
2016-11-18T12:38:56.420Z,9.57
2016-11-18T12:40:05.047Z,9.55
2016-11-18T12:41:14.054Z,9.72
2016-11-18T12:42:22.662Z,9.62
2016-11-18T12:43:31.289Z,9.4
2016-11-18T12:44:40.222Z,9.57
2016-11-18T12:45:49.495Z,9.54
2016-11-18T12:46:58.823Z,9.52
2016-11-18T12:48:07.768Z,9.6
2016-11-18T12:49:16.386Z,9.42
2016-11-18T12:50:25.321Z,9.42
2016-11-18T12:51:34.252Z,9.57
2016-11-18T12:52:43.222Z,9.62
2016-11-18T12:53:52.496Z,9.41
2016-11-18T12:55:01.119Z,9.57
2016-11-18T12:56:09.736Z,9.7
2016-11-18T12:57:18.675Z,9.54
2016-11-18T12:58:27.746Z,9.55
2016-11-18T12:59:36.374Z,9.29
2016-11-18T13:00:45.632Z,9.41
2016-11-18T13:01:54.575Z,9.65
2016-11-18T13:03:03.501Z,9.6
2016-11-18T13:04:12.170Z,9.55
2016-11-18T13:05:21.763Z,9.66
2016-11-18T13:06:31.041Z,9.48
2016-11-18T13:07:39.990Z,9.45
2016-11-18T13:08:49.254Z,9.47
2016-11-18T13:09:58.630Z,9.33
2016-11-18T13:11:07.622Z,9.24
2016-11-18T13:12:16.279Z,9.5
2016-11-18T13:13:24.890Z,9.55
2016-11-18T13:14:34.802Z,9.51
2016-11-18T13:15:43.548Z,9.48
2016-11-18T13:16:52.483Z,9.75
2016-11-18T13:18:01.440Z,9.57
2016-11-18T13:19:10.083Z,9.62
2016-11-18T13:20:19.033Z,9.52
2016-11-18T13:21:28.326Z,9.41
2016-11-18T13:22:37.593Z,9.47
2016-11-18T13:23:46.867Z,9.4
2016-11-18T13:24:55.817Z,9.34
2016-11-18T13:26:05.081Z,9.3
2016-11-18T13:27:14.708Z,9.32
2016-11-18T13:28:23.312Z,9.51
2016-11-18T13:29:32.579Z,9.48
2016-11-18T13:30:41.200Z,9.44
2016-11-18T13:31:49.831Z,9.51
2016-11-18T13:32:58.886Z,9.42
2016-11-18T13:34:07.504Z,9.45
2016-11-18T13:35:16.447Z,9.57
2016-11-18T13:36:25.392Z,9.51
2016-11-18T13:37:34.659Z,9.44
2016-11-18T13:38:43.330Z,9.44
2016-11-18T13:39:52.595Z,9.65
2016-11-18T13:41:01.210Z,9.57
2016-11-18T13:42:09.834Z,9.48
2016-11-18T13:43:18.771Z,9.65
2016-11-18T13:44:27.466Z,9.45
2016-11-18T13:45:36.090Z,9.51
2016-11-18T13:46:45.670Z,9.63
2016-11-18T13:47:54.619Z,9.37
2016-11-18T13:49:03.235Z,9.62
2016-11-18T13:50:12.515Z,9.55
2016-11-18T13:51:21.788Z,8.78
2016-11-18T13:52:31.082Z,8.65
2016-11-18T13:53:40.028Z,8.81
2016-11-18T13:54:49.292Z,8.85
2016-11-18T13:55:57.949Z,8.56
2016-11-18T13:57:06.575Z,8.31
2016-11-18T13:58:15.861Z,8.28
2016-11-18T13:59:25.129Z,8.12
2016-11-18T14:00:33.742Z,8.1
2016-11-18T14:01:42.719Z,8.04
2016-11-18T14:02:51.657Z,8.12
2016-11-18T14:04:00.269Z,7.98
2016-11-18T14:05:08.880Z,8.17
2016-11-18T14:06:17.490Z,8.21
2016-11-18T14:07:26.442Z,8.05
2016-11-18T14:08:36.044Z,8.26
2016-11-18T14:09:44.673Z,8.13
2016-11-18T14:10:53.296Z,7.98
2016-11-18T14:12:02.255Z,7.58
2016-11-18T14:13:11.307Z,7.78
2016-11-18T14:14:19.928Z,7.44
2016-11-18T14:15:29.829Z,7.26
2016-11-18T14:16:38.774Z,7.08
2016-11-18T14:17:47.713Z,6.99
2016-11-18T14:18:57.065Z,7.01
2016-11-18T14:20:05.695Z,7.37
2016-11-18T14:21:14.298Z,7.08
2016-11-18T14:22:23.235Z,7.07
2016-11-18T14:23:32.164Z,7.06
2016-11-18T14:24:41.157Z,7
2016-11-18T14:25:49.752Z,7.13
2016-11-18T14:26:58.375Z,6.92
2016-11-18T14:28:07.641Z,7.22
2016-11-18T14:29:16.573Z,7.4
2016-11-18T14:30:25.551Z,7.4
2016-11-18T14:31:34.820Z,7.54
2016-11-18T14:32:43.746Z,7.18
2016-11-18T14:33:52.699Z,7.25
2016-11-18T14:35:01.299Z,7.36
2016-11-18T14:36:10.666Z,7.15
2016-11-18T14:37:19.934Z,7.16
2016-11-18T14:38:29.178Z,7.13
2016-11-18T14:39:38.139Z,7.39
2016-11-18T14:40:47.062Z,7.19
2016-11-18T14:41:56.062Z,7.28
2016-11-18T14:43:05.319Z,7.06
2016-11-18T14:44:13.939Z,7.19
2016-11-18T14:45:23.213Z,7.42
2016-11-18T14:46:32.479Z,7.06
2016-11-18T14:47:41.435Z,6.89
2016-11-18T14:48:50.382Z,6.96
2016-11-18T14:49:59.337Z,6.78
2016-11-18T14:51:08.634Z,7.01
2016-11-18T14:52:17.559Z,7.04
2016-11-18T14:53:27.194Z,7.19
2016-11-18T14:54:36.440Z,7.24
2016-11-18T14:55:45.365Z,7.4
2016-11-18T14:56:54.940Z,7.25
2016-11-18T14:58:03.876Z,7.25
2016-11-18T14:59:13.235Z,7.11
2016-11-18T15:00:21.868Z,7.36
2016-11-18T15:01:30.465Z,7.22
2016-11-18T15:02:39.412Z,7.42
2016-11-18T15:03:48.331Z,7.19
2016-11-18T15:04:57.368Z,7.16
2016-11-18T15:06:05.991Z,7.19
2016-11-18T15:07:14.931Z,7.1
2016-11-18T15:08:23.545Z,6.96
2016-11-18T15:09:32.151Z,7.04
2016-11-18T15:10:41.130Z,7.18
2016-11-18T15:11:49.755Z,7.25
2016-11-18T15:12:58.404Z,7.39
2016-11-18T15:14:07.331Z,7.19
2016-11-18T15:15:15.947Z,7.25
2016-11-18T15:16:24.988Z,7.26
2016-11-18T15:17:34.247Z,7.39
2016-11-18T15:18:42.869Z,7.37
2016-11-18T15:19:51.807Z,7.44
2016-11-18T15:21:00.795Z,7.42
2016-11-18T15:22:10.419Z,7.5
2016-11-18T15:23:19.701Z,7.4
2016-11-18T15:24:28.627Z,7.44